Time;durP1;ratioP1;P1;durP2;ratioP2;P2;SDS_P1;SDS_P2;PMS_P1;PMS_P2;Temp;Humidity;BMP_temperature;BMP_pressure;BME280_temperature;BME280_humidity;BME280_pressure;Samples;Min_cycle;Max_cycle;Signal;HPM_P1;HPM_P2
2022/05/28 00:01:06;;;;;;;9.55;6.10;;;;;;;;;;5095113;28;20085;-66
2022/05/28 00:03:33;;;;;;;11.68;6.40;;;;;;;;;;5095109;28;20135;-67
2022/05/28 00:06:01;;;;;;;10.90;5.80;;;;;;;;;;5094981;28;20040;-67
2022/05/28 00:08:29;;;;;;;13.02;6.20;;;;;;;;;;5094708;28;20038;-67
2022/05/28 00:10:58;;;;;;;8.23;5.32;;;;;;;;;;5094847;28;20032;-67
2022/05/28 00:13:26;;;;;;;8.50;5.70;;;;;;;;;;5094819;28;20086;-67
2022/05/28 00:15:53;;;;;;;9.20;5.95;;;;;;;;;;5094566;28;20405;-65
2022/05/28 00:18:21;;;;;;;10.13;6.13;;;;;;;;;;5094747;28;20043;-65
2022/05/28 00:20:49;;;;;;;7.45;5.63;;;;;;;;;;5094779;28;20047;-65
2022/05/28 00:23:16;;;;;;;8.43;5.53;;;;;;;;;;5094595;28;20036;-65
2022/05/28 00:25:44;;;;;;;10.35;5.57;;;;;;;;;;5093705;28;20036;-65
2022/05/28 00:28:11;;;;;;;10.15;5.07;;;;;;;;;;5094468;28;20436;-65
2022/05/28 00:30:38;;;;;;;11.13;6.15;;;;;;;;;;5094431;28;20051;-65
2022/05/28 00:33:06;;;;;;;8.45;5.95;;;;;;;;;;5094305;28;20062;-64
2022/05/28 00:35:33;;;;;;;9.82;5.03;;;;;;;;;;5094355;28;20531;-65
2022/05/28 00:38:01;;;;;;;7.30;5.60;;;;;;;;;;5094381;28;20040;-64
2022/05/28 00:40:28;;;;;;;9.10;5.70;;;;;;;;;;5094272;28;20508;-65
2022/05/28 00:43:00;;;;;;;8.30;6.07;;;;;;;;;;5094244;28;20040;-65
2022/05/28 00:45:29;;;;;;;9.48;5.30;;;;;;;;;;5094089;28;20085;-65
2022/05/28 00:47:58;;;;;;;9.82;5.63;;;;;;;;;;5076200;28;20047;-66
2022/05/28 00:50:26;;;;;;;8.52;5.35;;;;;;;;;;5093984;28;20052;-66
2022/05/28 00:52:54;;;;;;;9.05;4.85;;;;;;;;;;5094004;28;20039;-67
2022/05/28 00:55:22;;;;;;;10.60;6.65;;;;;;;;;;5094081;28;20048;-67
2022/05/28 00:57:49;;;;;;;11.68;6.50;;;;;;;;;;5093949;28;20036;-65
2022/05/28 01:00:19;;;;;;;11.70;6.50;;;;;;;;;;5093971;28;20048;-66
2022/05/28 01:03:08;;;;;;;7.95;6.55;;;;;;;;;;5093778;28;20047;-65
2022/05/28 01:05:45;;;;;;;8.90;6.43;;;;;;;;;;5093670;28;20067;-66
2022/05/28 01:08:21;;;;;;;11.23;6.63;;;;;;;;;;5075898;28;20477;-66
2022/05/28 01:11:01;;;;;;;9.55;6.22;;;;;;;;;;5093749;28;20071;-67
2022/05/28 01:13:32;;;;;;;9.77;6.35;;;;;;;;;;5093710;28;20054;-66
2022/05/28 01:16:08;;;;;;;8.20;6.22;;;;;;;;;;5093721;28;20105;-67
2022/05/28 01:18:39;;;;;;;9.82;6.47;;;;;;;;;;5093598;28;20613;-66
2022/05/28 01:21:13;;;;;;;9.02;5.80;;;;;;;;;;5093504;28;20071;-66
2022/05/28 01:23:41;;;;;;;8.57;6.10;;;;;;;;;;5093404;28;20115;-66
2022/05/28 01:26:27;;;;;;;10.27;5.45;;;;;;;;;;5075560;28;20489;-66
2022/05/28 01:29:07;;;;;;;7.60;5.97;;;;;;;;;;5075612;28;20051;-65
2022/05/28 01:31:35;;;;;;;9.75;6.63;;;;;;;;;;5093470;28;20044;-64
2022/05/28 01:34:04;;;;;;;9.18;7.07;;;;;;;;;;5093221;28;20051;-64
2022/05/28 01:36:33;;;;;;;10.18;7.95;;;;;;;;;;5093133;28;20036;-64
2022/05/28 01:39:01;;;;;;;11.75;6.55;;;;;;;;;;5093190;28;20040;-64
2022/05/28 01:41:29;;;;;;;10.65;6.90;;;;;;;;;;5093493;28;20382;-64
2022/05/28 01:43:57;;;;;;;9.85;6.32;;;;;;;;;;5092955;28;20039;-64
2022/05/28 01:46:29;;;;;;;9.80;6.38;;;;;;;;;;5075358;28;20040;-64
2022/05/28 01:48:57;;;;;;;12.98;6.75;;;;;;;;;;5093027;28;20040;-64
2022/05/28 01:51:28;;;;;;;10.70;6.68;;;;;;;;;;5093112;28;20493;-64
2022/05/28 01:54:09;;;;;;;9.20;6.60;;;;;;;;;;5093034;28;20075;-64
2022/05/28 01:56:38;;;;;;;9.68;6.57;;;;;;;;;;5093039;28;20079;-64
2022/05/28 01:59:05;;;;;;;9.65;6.75;;;;;;;;;;5093026;28;20505;-64
2022/05/28 02:01:34;;;;;;;12.35;7.13;;;;;;;;;;5092789;28;20068;-66
2022/05/28 02:04:06;;;;;;;16.67;7.85;;;;;;;;;;5092859;28;20447;-66
2022/05/28 02:06:35;;;;;;;14.43;7.57;;;;;;;;;;5092773;28;20072;-66
2022/05/28 02:09:07;;;;;;;9.20;6.57;;;;;;;;;;5092737;28;20040;-66
2022/05/28 02:11:42;;;;;;;14.27;7.43;;;;;;;;;;5092621;28;20040;-66
2022/05/28 02:14:12;;;;;;;13.00;7.40;;;;;;;;;;5092692;28;20064;-65
2022/05/28 02:16:43;;;;;;;10.80;7.22;;;;;;;;;;5092668;28;20127;-66
2022/05/28 02:19:13;;;;;;;10.20;7.45;;;;;;;;;;5092623;28;20036;-66
2022/05/28 02:21:47;;;;;;;12.23;8.20;;;;;;;;;;5092556;28;20042;-66
2022/05/28 02:24:29;;;;;;;16.67;9.00;;;;;;;;;;5092567;28;20075;-64
2022/05/28 02:27:03;;;;;;;13.70;8.32;;;;;;;;;;5092564;28;20036;-64
2022/05/28 02:29:32;;;;;;;12.95;8.63;;;;;;;;;;5092297;28;20081;-65
2022/05/28 02:31:59;;;;;;;15.65;8.07;;;;;;;;;;5092585;28;20443;-66
2022/05/28 02:34:27;;;;;;;11.88;7.60;;;;;;;;;;5092120;28;20056;-67
2022/05/28 02:36:54;;;;;;;13.95;7.38;;;;;;;;;;5074860;28;20097;-64
2022/05/28 02:39:22;;;;;;;13.55;8.32;;;;;;;;;;5074113;28;20048;-67
2022/05/28 02:41:49;;;;;;;12.30;7.40;;;;;;;;;;5092442;28;20040;-67
2022/05/28 02:44:17;;;;;;;9.07;7.30;;;;;;;;;;5092369;28;20093;-67
2022/05/28 02:46:44;;;;;;;11.57;7.22;;;;;;;;;;5092210;28;20097;-67
2022/05/28 02:49:12;;;;;;;10.25;7.13;;;;;;;;;;5094137;28;20039;-65
2022/05/28 02:51:39;;;;;;;12.82;6.88;;;;;;;;;;5096396;28;20048;-67
2022/05/28 02:54:07;;;;;;;11.35;7.18;;;;;;;;;;5096389;28;20036;-67
2022/05/28 02:56:34;;;;;;;9.15;7.03;;;;;;;;;;5096333;28;20402;-66
2022/05/28 02:59:02;;;;;;;11.38;7.72;;;;;;;;;;5096354;28;20565;-64
2022/05/28 03:01:33;;;;;;;14.25;7.78;;;;;;;;;;5096197;28;20051;-65
2022/05/28 03:04:01;;;;;;;8.90;7.03;;;;;;;;;;5096361;28;20040;-65
2022/05/28 03:06:29;;;;;;;15.82;11.02;;;;;;;;;;5096176;28;20040;-65
2022/05/28 03:08:57;;;;;;;15.77;11.48;;;;;;;;;;5096229;28;20044;-65
2022/05/28 03:11:24;;;;;;;13.40;8.73;;;;;;;;;;5096101;28;20066;-66
2022/05/28 03:13:52;;;;;;;12.68;7.78;;;;;;;;;;5096041;28;20032;-65
2022/05/28 03:16:20;;;;;;;10.25;7.50;;;;;;;;;;5095825;28;20059;-65
2022/05/28 03:18:47;;;;;;;10.65;7.20;;;;;;;;;;5095985;28;20036;-65
2022/05/28 03:21:15;;;;;;;10.27;7.80;;;;;;;;;;5096140;28;20416;-65
2022/05/28 03:23:47;;;;;;;15.27;8.65;;;;;;;;;;5095720;28;20506;-65
2022/05/28 03:26:16;;;;;;;12.27;7.60;;;;;;;;;;5096097;28;20389;-65
2022/05/28 03:28:45;;;;;;;16.20;11.07;;;;;;;;;;5095618;28;20048;-65
2022/05/28 03:31:12;;;;;;;16.20;9.38;;;;;;;;;;5095656;28;20394;-65
2022/05/28 03:33:40;;;;;;;11.07;7.22;;;;;;;;;;5095557;28;20048;-65
2022/05/28 03:36:08;;;;;;;11.30;8.00;;;;;;;;;;5095735;28;20040;-65
2022/05/28 03:38:37;;;;;;;14.60;11.50;;;;;;;;;;5095548;28;20036;-65
2022/05/28 03:41:04;;;;;;;12.27;7.53;;;;;;;;;;5095294;28;20043;-65
2022/05/28 03:43:32;;;;;;;12.32;7.22;;;;;;;;;;5095322;28;20036;-65
2022/05/28 03:46:00;;;;;;;11.75;8.25;;;;;;;;;;5095374;28;20158;-65
2022/05/28 03:48:28;;;;;;;8.15;7.03;;;;;;;;;;5095377;28;20114;-65
2022/05/28 03:50:56;;;;;;;12.55;8.60;;;;;;;;;;5095193;28;20039;-65
2022/05/28 03:53:23;;;;;;;11.00;7.60;;;;;;;;;;5095260;28;20448;-65
2022/05/28 03:55:51;;;;;;;9.57;7.10;;;;;;;;;;5095231;28;20047;-65
2022/05/28 03:58:19;;;;;;;14.70;7.55;;;;;;;;;;5095113;28;20059;-65
2022/05/28 04:00:46;;;;;;;13.38;8.02;;;;;;;;;;5093653;28;20123;-65
2022/05/28 04:03:14;;;;;;;14.88;7.75;;;;;;;;;;5095140;28;20036;-65
2022/05/28 04:05:41;;;;;;;13.93;8.55;;;;;;;;;;5095006;28;20051;-65
2022/05/28 04:08:09;;;;;;;19.65;10.60;;;;;;;;;;5095209;28;20044;-66
2022/05/28 04:10:36;;;;;;;12.70;8.70;;;;;;;;;;5094684;28;20047;-66
2022/05/28 04:13:03;;;;;;;16.25;9.45;;;;;;;;;;5094863;28;20516;-65
2022/05/28 04:15:32;;;;;;;14.57;9.48;;;;;;;;;;5094641;28;20113;-61
2022/05/28 04:18:00;;;;;;;17.08;8.32;;;;;;;;;;5094800;28;20031;-64
2022/05/28 04:20:27;;;;;;;14.00;8.13;;;;;;;;;;5094788;28;20102;-65
2022/05/28 04:22:55;;;;;;;12.15;7.45;;;;;;;;;;5094762;28;20044;-64
2022/05/28 04:25:22;;;;;;;10.95;8.05;;;;;;;;;;5068056;28;20037;-64
2022/05/28 04:27:50;;;;;;;14.55;8.55;;;;;;;;;;5091784;28;20039;-65
2022/05/28 04:30:18;;;;;;;13.13;8.27;;;;;;;;;;5094479;28;20044;-65
2022/05/28 04:32:45;;;;;;;12.80;7.80;;;;;;;;;;5094348;28;20048;-64
2022/05/28 04:35:13;;;;;;;13.77;8.25;;;;;;;;;;5094545;28;20485;-64
2022/05/28 04:37:40;;;;;;;13.50;9.75;;;;;;;;;;5094298;28;20119;-64
2022/05/28 04:40:08;;;;;;;14.77;11.00;;;;;;;;;;5094300;28;20383;-64
2022/05/28 04:42:35;;;;;;;14.85;9.20;;;;;;;;;;5076448;28;20454;-64
2022/05/28 04:45:03;;;;;;;11.68;9.10;;;;;;;;;;5094289;28;20043;-64
2022/05/28 04:47:31;;;;;;;12.50;9.20;;;;;;;;;;5094243;28;20367;-64
2022/05/28 04:49:59;;;;;;;51.20;28.10;;;;;;;;;;5083229;28;20036;-64
2022/05/28 04:52:26;;;;;;;40.50;23.00;;;;;;;;;;5079226;28;20068;-63
2022/05/28 04:54:54;;;;;;;52.13;26.30;;;;;;;;;;5073527;28;20114;-65
2022/05/28 04:57:21;;;;;;;19.05;11.82;;;;;;;;;;5073737;28;20048;-65
2022/05/28 04:59:48;;;;;;;15.35;9.52;;;;;;;;;;5073704;28;20098;-65
2022/05/28 05:02:16;;;;;;;12.93;8.35;;;;;;;;;;5055898;28;20441;-65
2022/05/28 05:04:44;;;;;;;19.05;12.80;;;;;;;;;;5073897;28;20106;-65
2022/05/28 05:07:11;;;;;;;16.65;12.52;;;;;;;;;;5073805;28;20110;-65
2022/05/28 05:09:38;;;;;;;17.65;12.27;;;;;;;;;;5073460;28;20045;-64
2022/05/28 05:12:06;;;;;;;23.35;14.35;;;;;;;;;;5073008;28;20111;-64
2022/05/28 05:14:34;;;;;;;20.52;13.68;;;;;;;;;;5073383;28;20064;-64
2022/05/28 05:17:01;;;;;;;25.60;12.70;;;;;;;;;;5073283;28;20704;-72
2022/05/28 05:19:29;;;;;;;21.58;11.02;;;;;;;;;;5073645;28;20450;-74
2022/05/28 05:21:56;;;;;;;14.48;8.45;;;;;;;;;;5073323;28;20097;-73
2022/05/28 05:24:24;;;;;;;16.75;9.63;;;;;;;;;;5073362;28;20041;-73
2022/05/28 05:26:52;;;;;;;18.58;11.50;;;;;;;;;;5073161;28;20086;-73
2022/05/28 05:29:20;;;;;;;16.52;10.77;;;;;;;;;;5072999;28;20520;-73
2022/05/28 05:31:47;;;;;;;28.70;16.65;;;;;;;;;;5073039;28;20045;-65
2022/05/28 05:34:15;;;;;;;25.60;14.50;;;;;;;;;;5054888;28;20044;-60
2022/05/28 05:36:42;;;;;;;28.98;15.82;;;;;;;;;;5072782;28;20040;-60
2022/05/28 05:39:10;;;;;;;14.00;8.90;;;;;;;;;;5073238;28;20052;-60
2022/05/28 05:41:40;;;;;;;37.08;26.75;;;;;;;;;;5072936;28;20113;-60
2022/05/28 05:44:08;;;;;;;19.15;11.35;;;;;;;;;;5073187;28;20454;-62
2022/05/28 05:46:38;;;;;;;14.73;11.75;;;;;;;;;;5072925;28;20056;-69
2022/05/28 05:49:08;;;;;;;10.82;5.72;;;;;;;;;;5073184;28;20390;-65
2022/05/28 05:51:38;;;;;;;13.18;6.35;;;;;;;;;;5072778;28;20049;-65
2022/05/28 05:54:05;;;;;;;8.20;4.53;;;;;;;;;;5072571;28;20071;-65
2022/05/28 05:56:33;;;;;;;8.57;5.05;;;;;;;;;;5072851;28;20063;-65
2022/05/28 05:59:00;;;;;;;11.27;5.90;;;;;;;;;;5072701;28;20048;-65
2022/05/28 06:01:28;;;;;;;10.05;6.95;;;;;;;;;;5072781;28;20509;-66
2022/05/28 06:03:56;;;;;;;11.20;4.80;;;;;;;;;;5077617;28;20111;-65
2022/05/28 06:06:23;;;;;;;12.43;7.15;;;;;;;;;;5089746;28;20063;-65
2022/05/28 06:08:51;;;;;;;8.73;4.85;;;;;;;;;;5091928;28;20047;-66
2022/05/28 06:11:18;;;;;;;9.38;4.85;;;;;;;;;;5091680;28;20056;-65
2022/05/28 06:13:46;;;;;;;12.20;8.57;;;;;;;;;;5091730;28;20040;-65
2022/05/28 06:16:13;;;;;;;10.07;5.13;;;;;;;;;;5073820;28;20122;-64
2022/05/28 06:18:42;;;;;;;8.40;4.80;;;;;;;;;;5090911;28;20085;-64
2022/05/28 06:21:09;;;;;;;8.88;4.93;;;;;;;;;;5091535;28;20527;-64
2022/05/28 06:23:37;;;;;;;9.23;4.55;;;;;;;;;;5090853;28;20040;-65
2022/05/28 06:26:05;;;;;;;11.13;7.43;;;;;;;;;;5091393;28;20044;-65
2022/05/28 06:28:32;;;;;;;8.20;5.35;;;;;;;;;;5091705;28;20382;-65
2022/05/28 06:31:01;;;;;;;7.10;4.90;;;;;;;;;;5091299;28;20067;-65
2022/05/28 06:33:28;;;;;;;6.22;4.65;;;;;;;;;;5091396;28;20075;-65
2022/05/28 06:35:56;;;;;;;8.85;4.63;;;;;;;;;;5091523;28;20796;-65
2022/05/28 06:38:24;;;;;;;7.30;5.45;;;;;;;;;;5091466;28;20048;-65
2022/05/28 06:40:52;;;;;;;10.38;6.93;;;;;;;;;;5091388;28;20043;-65
2022/05/28 06:43:20;;;;;;;7.47;5.63;;;;;;;;;;5090944;28;20119;-65
2022/05/28 06:45:48;;;;;;;8.80;4.63;;;;;;;;;;5090885;28;20497;-65
2022/05/28 06:48:16;;;;;;;8.68;5.50;;;;;;;;;;5091438;28;20044;-65
2022/05/28 06:51:02;;;;;;;7.68;4.47;;;;;;;;;;5091128;28;20036;-65
2022/05/28 06:53:30;;;;;;;5.80;4.13;;;;;;;;;;5091310;28;20493;-65
2022/05/28 06:55:58;;;;;;;7.85;4.82;;;;;;;;;;5091280;28;20040;-66
2022/05/28 06:58:25;;;;;;;8.05;4.50;;;;;;;;;;5091377;28;20119;-67
2022/05/28 07:00:53;;;;;;;9.25;5.38;;;;;;;;;;5091317;28;20051;-65
2022/05/28 07:03:22;;;;;;;6.22;4.28;;;;;;;;;;5089885;28;20036;-65
2022/05/28 07:05:50;;;;;;;8.30;4.47;;;;;;;;;;5090005;28;20037;-65
2022/05/28 07:08:18;;;;;;;5.90;4.25;;;;;;;;;;5091573;28;20051;-66
2022/05/28 07:10:47;;;;;;;10.05;4.65;;;;;;;;;;5092234;28;20397;-67
2022/05/28 07:13:15;;;;;;;7.72;4.38;;;;;;;;;;5091132;28;20032;-67
2022/05/28 07:15:42;;;;;;;8.50;4.68;;;;;;;;;;5090811;28;20113;-69
2022/05/28 07:18:10;;;;;;;7.65;5.05;;;;;;;;;;5090951;28;20046;-69
2022/05/28 07:20:38;;;;;;;7.50;4.28;;;;;;;;;;5091066;28;20131;-70
2022/05/28 07:23:07;;;;;;;8.13;3.92;;;;;;;;;;5073128;28;20401;-70
2022/05/28 07:25:34;;;;;;;8.80;4.20;;;;;;;;;;5072738;28;20078;-72
2022/05/28 07:28:24;;;;;;;6.50;3.92;;;;;;;;;;5090984;28;20156;-71
2022/05/28 07:30:49;;;;;;;7.65;4.40;;;;;;;;;;5090781;28;20109;-70
2022/05/28 07:33:17;;;;;;;6.68;3.88;;;;;;;;;;5090806;28;20094;-70
2022/05/28 07:35:45;;;;;;;7.55;4.05;;;;;;;;;;5093510;28;20408;-70
2022/05/28 07:38:12;;;;;;;6.75;3.50;;;;;;;;;;5094386;28;20066;-71
2022/05/28 07:40:40;;;;;;;6.05;3.53;;;;;;;;;;5094305;28;20111;-71
2022/05/28 07:43:08;;;;;;;5.80;3.50;;;;;;;;;;5094290;28;20036;-71
2022/05/28 07:45:38;;;;;;;5.13;3.30;;;;;;;;;;5094343;28;20067;-74
2022/05/28 07:48:07;;;;;;;5.78;3.10;;;;;;;;;;5076798;28;20047;-72
2022/05/28 07:50:34;;;;;;;6.72;3.17;;;;;;;;;;5076405;28;20070;-68
2022/05/28 07:53:03;;;;;;;5.15;3.28;;;;;;;;;;5076271;28;20097;-73
2022/05/28 07:55:31;;;;;;;7.88;4.40;;;;;;;;;;5094255;28;20048;-71
2022/05/28 07:58:04;;;;;;;6.68;3.30;;;;;;;;;;5093490;28;20083;-70
2022/05/28 08:00:32;;;;;;;6.85;3.05;;;;;;;;;;5059256;28;20077;-71
2022/05/28 08:03:00;;;;;;;5.18;3.20;;;;;;;;;;5094080;28;20040;-71
2022/05/28 08:05:34;;;;;;;6.47;3.45;;;;;;;;;;5094231;28;20481;-73
2022/05/28 08:08:02;;;;;;;12.13;4.35;;;;;;;;;;5076193;28;20047;-71
2022/05/28 08:10:30;;;;;;;8.90;3.58;;;;;;;;;;5075580;28;20097;-72
2022/05/28 08:13:07;;;;;;;9.98;3.20;;;;;;;;;;5094506;28;20112;-71
2022/05/28 08:15:39;;;;;;;8.20;3.58;;;;;;;;;;5093491;28;20040;-70
2022/05/28 08:18:07;;;;;;;7.03;4.45;;;;;;;;;;5076403;28;20072;-69
2022/05/28 08:23:22;;;;;;;7.78;4.32;;;;;;;;;;5094648;28;20040;-70
2022/05/28 08:25:50;;;;;;;8.55;4.97;;;;;;;;;;5094616;28;20554;-71
2022/05/28 08:28:18;;;;;;;9.40;5.65;;;;;;;;;;5076653;28;20033;-70
2022/05/28 08:30:46;;;;;;;10.63;7.43;;;;;;;;;;5076326;28;20044;-70
2022/05/28 08:33:15;;;;;;;23.02;17.88;;;;;;;;;;5094293;28;20253;-71
2022/05/28 08:35:43;;;;;;;7.13;3.38;;;;;;;;;;5076200;28;20566;-71
2022/05/28 08:38:13;;;;;;;7.53;3.78;;;;;;;;;;5076446;28;20052;-70
2022/05/28 08:40:59;;;;;;;5.43;3.10;;;;;;;;;;5093844;28;20028;-73
2022/05/28 08:43:29;;;;;;;6.05;4.70;;;;;;;;;;5093291;28;20101;-72
2022/05/28 08:45:57;;;;;;;6.30;3.40;;;;;;;;;;5058062;28;20047;-72
2022/05/28 08:48:28;;;;;;;5.97;3.50;;;;;;;;;;5093160;28;20036;-73
2022/05/28 08:50:58;;;;;;;8.98;4.22;;;;;;;;;;5093213;28;20051;-71
2022/05/28 08:53:28;;;;;;;6.13;3.70;;;;;;;;;;5092785;28;20051;-72
2022/05/28 08:55:58;;;;;;;7.70;4.82;;;;;;;;;;5094001;28;20101;-70
2022/05/28 08:58:27;;;;;;;6.50;3.97;;;;;;;;;;5093219;28;20043;-71
2022/05/28 09:00:55;;;;;;;6.40;4.40;;;;;;;;;;5092187;28;20036;-66
2022/05/28 09:03:29;;;;;;;12.40;7.93;;;;;;;;;;5071690;28;20394;-69
2022/05/28 09:05:57;;;;;;;9.98;4.70;;;;;;;;;;5091987;28;20051;-71
2022/05/28 09:08:29;;;;;;;7.68;5.90;;;;;;;;;;5091921;28;20043;-72
2022/05/28 09:10:58;;;;;;;9.65;4.95;;;;;;;;;;5091759;28;20044;-72
2022/05/28 09:13:44;;;;;;;6.78;4.65;;;;;;;;;;5092083;28;20389;-71
2022/05/28 09:16:32;;;;;;;9.85;4.35;;;;;;;;;;5092590;28;20113;-72
2022/05/28 09:19:05;;;;;;;8.15;3.70;;;;;;;;;;5092612;28;20032;-71
2022/05/28 09:21:33;;;;;;;5.70;3.25;;;;;;;;;;5092393;28;20036;-71
2022/05/28 09:24:06;;;;;;;9.68;5.78;;;;;;;;;;5075187;28;20035;-71
2022/05/28 09:26:51;;;;;;;9.40;4.57;;;;;;;;;;5092084;28;20089;-71
2022/05/28 09:29:18;;;;;;;9.32;4.13;;;;;;;;;;5073867;28;20087;-70
2022/05/28 09:31:46;;;;;;;9.38;4.40;;;;;;;;;;5091726;28;20036;-72
2022/05/28 09:34:14;;;;;;;10.82;4.45;;;;;;;;;;5091171;28;20063;-73
2022/05/28 09:36:53;;;;;;;7.13;3.58;;;;;;;;;;5091847;28;20040;-72
2022/05/28 09:39:26;;;;;;;8.82;4.47;;;;;;;;;;5093173;28;20079;-73
2022/05/28 09:41:57;;;;;;;9.55;4.55;;;;;;;;;;5093097;28;20042;-73
2022/05/28 09:44:25;;;;;;;8.10;3.55;;;;;;;;;;5075010;28;20417;-74
2022/05/28 09:46:52;;;;;;;7.50;4.53;;;;;;;;;;5092946;28;20047;-72
2022/05/28 09:49:24;;;;;;;10.23;5.90;;;;;;;;;;5092947;28;20052;-72
2022/05/28 09:51:54;;;;;;;9.63;5.22;;;;;;;;;;5092802;28;20497;-73
2022/05/28 09:54:23;;;;;;;10.07;4.68;;;;;;;;;;5093026;28;20067;-73
2022/05/28 09:56:51;;;;;;;8.73;4.40;;;;;;;;;;5074936;28;20401;-73
2022/05/28 09:59:20;;;;;;;18.25;3.92;;;;;;;;;;5090801;28;20055;-71
2022/05/28 10:01:56;;;;;;;5.80;3.45;;;;;;;;;;5090886;28;20062;-72
2022/05/28 10:04:31;;;;;;;9.75;3.90;;;;;;;;;;5091441;28;20075;-73
2022/05/28 10:06:58;;;;;;;;;;;;;;;;;;5091329;28;20121;-71
2022/05/28 10:09:27;;;;;;;9.00;3.90;;;;;;;;;;5090430;28;19920;-73
2022/05/28 10:12:14;;;;;;;9.27;5.22;;;;;;;;;;5091702;28;20039;-72
2022/05/28 10:14:42;;;;;;;10.43;3.95;;;;;;;;;;5091840;28;20067;-72
2022/05/28 10:17:21;;;;;;;7.88;3.80;;;;;;;;;;5073664;28;20518;-73
2022/05/28 10:19:50;;;;;;;27.55;17.48;;;;;;;;;;5057087;28;20068;-72
2022/05/28 10:22:19;;;;;;;23.55;18.10;;;;;;;;;;5091729;28;20093;-72
2022/05/28 10:24:51;;;;;;;7.05;4.05;;;;;;;;;;5091731;28;20036;-73
2022/05/28 10:27:22;;;;;;;6.95;3.47;;;;;;;;;;5091431;28;20101;-74
2022/05/28 10:29:50;;;;;;;10.48;3.85;;;;;;;;;;5092014;28;20044;-73
2022/05/28 10:32:23;;;;;;;11.43;4.40;;;;;;;;;;5091580;28;20493;-73
2022/05/28 10:35:20;;;;;;;104.00;89.97;;;;;;;;;;5091836;28;20043;-73
2022/05/28 10:37:48;;;;;;;9.90;4.38;;;;;;;;;;5071296;28;20048;-73
2022/05/28 10:40:18;;;;;;;7.72;3.13;;;;;;;;;;5091794;28;20044;-73
2022/05/28 10:42:47;;;;;;;10.70;4.13;;;;;;;;;;5091675;28;20482;-73
2022/05/28 10:45:17;;;;;;;10.40;5.05;;;;;;;;;;5091604;28;20044;-73
2022/05/28 10:47:50;;;;;;;8.43;3.80;;;;;;;;;;5091683;28;20561;-73
2022/05/28 10:50:53;;;;;;;12.57;4.05;;;;;;;;;;5091137;28;20039;-73
2022/05/28 10:53:41;;;;;;;9.48;4.05;;;;;;;;;;5028764;28;20582;-73
2022/05/28 10:56:11;;;;;;;22.23;4.13;;;;;;;;;;5087781;28;20131;-71
2022/05/28 10:58:45;;;;;;;11.45;5.15;;;;;;;;;;5091305;28;20486;-73
2022/05/28 11:01:19;;;;;;;9.15;4.38;;;;;;;;;;5091611;28;20128;-73
2022/05/28 11:03:54;;;;;;;8.10;3.53;;;;;;;;;;5091396;28;20055;-72
2022/05/28 11:06:21;;;;;;;12.02;3.53;;;;;;;;;;5091046;28;22181;-72
2022/05/28 11:08:49;;;;;;;8.00;3.83;;;;;;;;;;5090811;28;20044;-72
2022/05/28 11:11:25;;;;;;;14.50;4.50;;;;;;;;;;5096198;28;20050;-72
2022/05/28 11:14:05;;;;;;;9.98;4.00;;;;;;;;;;5096052;28;20164;-73
2022/05/28 11:16:32;;;;;;;11.43;4.22;;;;;;;;;;5095834;28;20048;-72
2022/05/28 11:19:13;;;;;;;9.20;3.40;;;;;;;;;;5095667;28;20535;-72
2022/05/28 11:21:56;;;;;;;8.63;3.78;;;;;;;;;;5077667;28;20075;-73
2022/05/28 11:24:26;;;;;;;10.38;3.28;;;;;;;;;;5095867;28;20115;-71
2022/05/28 11:27:12;;;;;;;9.32;3.42;;;;;;;;;;5087220;28;20063;-72
2022/05/28 11:29:59;;;;;;;6.97;3.10;;;;;;;;;;5094532;28;20436;-71
2022/05/28 11:32:28;;;;;;;10.30;3.20;;;;;;;;;;5077827;28;20059;-72
2022/05/28 11:34:56;;;;;;;10.13;3.50;;;;;;;;;;5095626;28;20047;-71
2022/05/28 11:37:41;;;;;;;12.18;4.25;;;;;;;;;;5094128;28;20040;-69
2022/05/28 11:40:20;;;;;;;12.18;3.58;;;;;;;;;;5095044;28;20539;-70
2022/05/28 11:42:59;;;;;;;9.75;3.17;;;;;;;;;;5095348;28;20075;-71
2022/05/28 11:45:36;;;;;;;11.07;5.25;;;;;;;;;;5095098;28;20065;-70
2022/05/28 11:48:13;;;;;;;13.00;4.43;;;;;;;;;;5094569;28;20036;-71
2022/05/28 11:53:47;;;;;;;10.77;3.45;;;;;;;;;;5094985;28;20048;-72
2022/05/28 11:56:16;;;;;;;11.43;4.00;;;;;;;;;;5094888;28;20040;-73
2022/05/28 11:58:46;;;;;;;10.40;3.97;;;;;;;;;;5093616;28;20101;-72
2022/05/28 12:01:18;;;;;;;12.30;3.40;;;;;;;;;;5095022;28;20032;-72
2022/05/28 12:03:46;;;;;;;10.70;3.45;;;;;;;;;;5076598;28;20043;-72
2022/05/28 12:06:18;;;;;;;10.93;3.42;;;;;;;;;;5076824;28;20442;-73
2022/05/28 12:08:48;;;;;;;10.35;3.42;;;;;;;;;;5094528;28;20055;-73
2022/05/28 12:11:22;;;;;;;6.15;2.92;;;;;;;;;;5094553;28;20123;-72
2022/05/28 12:13:50;;;;;;;9.23;3.08;;;;;;;;;;5089513;28;20037;-71
2022/05/28 12:16:17;;;;;;;10.93;3.22;;;;;;;;;;5094445;28;20416;-71
2022/05/28 12:18:59;;;;;;;13.07;3.33;;;;;;;;;;5094276;28;20051;-71
2022/05/28 12:21:28;;;;;;;10.82;3.28;;;;;;;;;;5093246;28;20048;-72
2022/05/28 12:24:08;;;;;;;11.52;3.13;;;;;;;;;;5094568;28;20040;-74
2022/05/28 12:27:08;;;;;;;9.52;2.97;;;;;;;;;;5094398;28;20058;-74
2022/05/28 12:29:45;;;;;;;8.52;3.22;;;;;;;;;;5094252;28;20564;-74
2022/05/28 12:32:18;;;;;;;9.45;3.63;;;;;;;;;;5094100;28;20097;-73
2022/05/28 12:35:08;;;;;;;12.00;3.75;;;;;;;;;;5076319;28;20052;-72
2022/05/28 12:37:35;;;;;;;10.88;3.47;;;;;;;;;;5094853;28;20093;-74
2022/05/28 12:40:12;;;;;;;11.38;2.95;;;;;;;;;;5095660;28;20051;-73
2022/05/28 12:42:39;;;;;;;11.73;3.53;;;;;;;;;;5094383;28;20142;-73
2022/05/28 12:45:12;;;;;;;7.95;3.33;;;;;;;;;;5093646;28;20044;-74
2022/05/28 12:47:39;;;;;;;10.70;3.50;;;;;;;;;;5093226;28;20036;-73
2022/05/28 12:50:12;;;;;;;10.07;3.55;;;;;;;;;;5093777;28;20044;-73
2022/05/28 12:52:50;;;;;;;7.47;2.88;;;;;;;;;;5092492;28;20126;-74
2022/05/28 12:55:29;;;;;;;10.25;3.40;;;;;;;;;;5093916;28;20089;-73
2022/05/28 12:57:58;;;;;;;9.80;3.38;;;;;;;;;;5093892;28;20040;-74
2022/05/28 13:00:26;;;;;;;9.00;2.88;;;;;;;;;;5093836;28;20101;-74
2022/05/28 13:02:55;;;;;;;10.38;2.97;;;;;;;;;;5093956;28;20115;-74
2022/05/28 13:05:28;;;;;;;8.52;3.08;;;;;;;;;;5093824;28;20093;-73
2022/05/28 13:08:02;;;;;;;9.75;2.78;;;;;;;;;;5093586;28;20055;-74
2022/05/28 13:10:30;;;;;;;10.25;3.15;;;;;;;;;;5093854;28;20119;-73
2022/05/28 13:13:17;;;;;;;9.48;3.13;;;;;;;;;;5093675;28;20036;-70
2022/05/28 13:15:44;;;;;;;10.57;3.50;;;;;;;;;;5093563;28;20115;-74
2022/05/28 13:18:24;;;;;;;12.10;3.72;;;;;;;;;;5093409;28;20130;-74
2022/05/28 13:20:55;;;;;;;9.80;3.28;;;;;;;;;;5093467;28;20158;-74
2022/05/28 13:23:32;;;;;;;10.52;3.25;;;;;;;;;;5093416;28;20036;-74
2022/05/28 13:26:18;;;;;;;10.38;3.45;;;;;;;;;;5092845;28;20171;-72
2022/05/28 13:28:55;;;;;;;14.95;6.75;;;;;;;;;;5092758;28;20355;-71
2022/05/28 13:31:27;;;;;;;12.30;4.40;;;;;;;;;;5092316;28;20058;-73
2022/05/28 13:33:55;;;;;;;12.80;3.58;;;;;;;;;;5080357;28;20058;-71
2022/05/28 13:36:23;;;;;;;15.13;7.18;;;;;;;;;;5071655;28;20221;-68
2022/05/28 13:38:51;;;;;;;12.15;6.15;;;;;;;;;;5072357;28;20045;-74
2022/05/28 13:41:21;;;;;;;8.57;3.58;;;;;;;;;;5072599;28;20051;-73
2022/05/28 13:43:53;;;;;;;11.75;3.67;;;;;;;;;;5088448;28;20040;-74
2022/05/28 13:46:23;;;;;;;10.38;3.92;;;;;;;;;;5093414;28;20432;-73
2022/05/28 13:48:55;;;;;;;10.38;3.42;;;;;;;;;;5091887;28;20032;-72
2022/05/28 13:51:24;;;;;;;12.35;3.55;;;;;;;;;;5092630;28;20040;-71
2022/05/28 13:53:54;;;;;;;9.60;3.85;;;;;;;;;;5092543;28;20409;-72
2022/05/28 13:56:25;;;;;;;9.98;4.05;;;;;;;;;;5092523;28;20072;-72
2022/05/28 13:58:55;;;;;;;11.82;3.95;;;;;;;;;;5091795;28;20089;-71
2022/05/28 14:01:34;;;;;;;9.15;3.78;;;;;;;;;;5093015;28;20444;-71
2022/05/28 14:04:09;;;;;;;12.05;3.38;;;;;;;;;;5092553;28;20043;-71
2022/05/28 14:06:39;;;;;;;9.95;3.60;;;;;;;;;;5092278;28;20066;-71
2022/05/28 14:09:06;;;;;;;10.93;3.53;;;;;;;;;;5093054;28;20062;-71
2022/05/28 14:11:38;;;;;;;9.30;4.07;;;;;;;;;;5092770;28;20036;-71
2022/05/28 14:14:14;;;;;;;8.82;3.85;;;;;;;;;;5092871;28;20059;-71
2022/05/28 14:16:49;;;;;;;11.43;3.50;;;;;;;;;;5092703;28;20040;-71
2022/05/28 14:19:37;;;;;;;9.48;3.45;;;;;;;;;;5091537;28;20127;-71
2022/05/28 14:22:07;;;;;;;12.52;3.50;;;;;;;;;;5074165;28;20246;-70
2022/05/28 14:24:42;;;;;;;8.82;3.90;;;;;;;;;;5073975;28;20082;-70
2022/05/28 14:27:11;;;;;;;11.77;3.38;;;;;;;;;;5091867;28;20123;-70
2022/05/28 14:29:40;;;;;;;10.65;3.53;;;;;;;;;;5092039;28;20067;-72
2022/05/28 14:32:11;;;;;;;17.42;4.35;;;;;;;;;;5092020;28;20040;-71
2022/05/28 14:34:40;;;;;;;15.00;3.58;;;;;;;;;;5092747;28;20436;-70
2022/05/28 14:37:08;;;;;;;11.30;3.50;;;;;;;;;;5092790;28;20040;-71
2022/05/28 14:39:43;;;;;;;12.57;3.78;;;;;;;;;;5092454;28;20058;-69
2022/05/28 14:42:12;;;;;;;13.95;3.92;;;;;;;;;;5092564;28;20082;-69
2022/05/28 14:44:40;;;;;;;11.82;3.80;;;;;;;;;;5093628;28;20044;-69
2022/05/28 14:47:11;;;;;;;9.65;3.20;;;;;;;;;;5096597;28;20504;-70
2022/05/28 14:49:49;;;;;;;11.40;3.60;;;;;;;;;;5096544;28;20123;-70
2022/05/28 14:52:21;;;;;;;8.38;3.58;;;;;;;;;;5096237;28;20063;-70
2022/05/28 14:54:54;;;;;;;12.30;3.75;;;;;;;;;;5096276;28;20440;-70
2022/05/28 14:57:31;;;;;;;8.43;3.30;;;;;;;;;;5096518;28;20055;-69
2022/05/28 15:00:02;;;;;;;14.10;3.90;;;;;;;;;;5096380;28;20118;-69
2022/05/28 15:02:32;;;;;;;12.77;4.60;;;;;;;;;;5096528;28;20040;-69